Time;durP1;ratioP1;P1;durP2;ratioP2;P2;SDS_P1;SDS_P2;PMS_P1;PMS_P2;Temp;Humidity;BMP_temperature;BMP_pressure;BME280_temperature;BME280_humidity;BME280_pressure;Samples;Min_cycle;Max_cycle;Signal;HPM_P1;HPM_P2
2022/06/22 00:01:57;;;;;;;11.45;6.90;;;;;;;15.21;65.80;101306.13;5029320;28;20533;-95
2022/06/22 00:04:41;;;;;;;10.55;7.03;;;;;;;15.15;65.31;101303.41;5029268;28;20549;-95
2022/06/22 00:07:12;;;;;;;11.52;7.25;;;;;;;15.06;65.55;101291.97;5029309;28;20021;-95
2022/06/22 00:09:39;;;;;;;10.32;6.50;;;;;;;15.04;66.29;101300.66;5027981;28;20124;-95
2022/06/22 00:12:16;;;;;;;11.30;6.85;;;;;;;14.99;66.38;101295.38;5028873;28;20033;-95
2022/06/22 00:14:48;;;;;;;11.55;7.80;;;;;;;14.99;66.95;101298.00;5028772;28;20114;-94
2022/06/22 00:17:35;;;;;;;10.65;7.95;;;;;;;15.00;66.63;101289.22;5031723;28;20041;-95
2022/06/22 00:20:23;;;;;;;13.43;8.55;;;;;;;14.97;66.99;101283.94;5019906;28;20017;-95
2022/06/22 00:22:55;;;;;;;12.93;7.95;;;;;;;14.95;68.17;101280.44;5028853;28;20047;-95
2022/06/22 00:25:36;;;;;;;15.48;9.02;;;;;;;14.97;67.34;101268.22;5029043;28;20063;-95
2022/06/22 00:28:31;;;;;;;13.60;8.82;;;;;;;14.95;67.47;101270.81;5028212;28;20059;-96
2022/06/22 00:31:11;;;;;;;14.70;9.13;;;;;;;14.94;67.71;101271.66;5028302;28;20037;-95
2022/06/22 00:33:36;;;;;;;15.15;9.55;;;;;;;14.92;68.33;101281.28;5029180;28;20025;-95
2022/06/22 00:36:01;;;;;;;15.63;9.98;;;;;;;14.94;68.26;101289.16;5028754;28;20534;-95
2022/06/22 00:38:30;;;;;;;13.65;9.75;;;;;;;14.89;68.66;101278.63;5033251;28;20121;-95
2022/06/22 00:41:01;;;;;;;15.05;9.90;;;;;;;14.89;68.55;101264.63;5015708;28;20037;-96
2022/06/22 00:43:30;;;;;;;14.38;10.00;;;;;;;14.88;69.33;101268.09;5028721;28;20105;-95
2022/06/22 00:45:56;;;;;;;13.80;9.60;;;;;;;14.85;68.72;101262.81;5015512;28;20025;-95
2022/06/22 00:48:30;;;;;;;13.82;10.13;;;;;;;14.83;68.34;101272.41;5028257;28;20025;-94
2022/06/22 00:51:01;;;;;;;15.10;10.80;;;;;;;14.82;68.65;101284.66;5029762;28;20629;-95
2022/06/22 00:53:35;;;;;;;16.38;10.45;;;;;;;14.84;68.73;101298.66;5027686;28;20230;-95
2022/06/22 00:56:32;;;;;;;16.77;10.90;;;;;;;14.83;68.55;101285.53;5016108;28;20391;-95
2022/06/22 00:59:06;;;;;;;14.68;10.02;;;;;;;14.79;69.33;101276.75;5028165;28;20556;-95
2022/06/22 01:01:44;;;;;;;15.85;11.10;;;;;;;14.77;69.55;101270.56;5030218;28;20032;-95
2022/06/22 01:04:21;;;;;;;16.35;10.48;;;;;;;14.73;69.51;101269.66;5016664;28;20045;-96
2022/06/22 01:06:56;;;;;;;16.77;10.65;;;;;;;14.72;70.10;101265.28;5035146;28;20061;-95
2022/06/22 01:09:30;;;;;;;19.10;10.90;;;;;;;14.69;70.15;101256.50;5019004;28;20037;-96
2022/06/22 01:12:18;;;;;;;16.33;11.20;;;;;;;14.67;70.21;101260.81;5025817;28;20030;-95
2022/06/22 01:15:15;;;;;;;17.80;11.23;;;;;;;14.65;68.90;101266.06;5028610;28;20504;-95
2022/06/22 01:17:48;;;;;;;17.67;11.48;;;;;;;14.65;69.86;101288.78;5016982;28;20045;-95
2022/06/22 01:20:29;;;;;;;20.98;11.55;;;;;;;14.64;69.70;101290.50;5040701;28;20025;-95
2022/06/22 01:23:13;;;;;;;15.70;11.13;;;;;;;14.63;69.90;101296.63;5030262;28;20468;-95
2022/06/22 01:25:56;;;;;;;17.70;11.95;;;;;;;14.60;71.15;101301.81;5027808;28;20025;-95
2022/06/22 01:28:24;;;;;;;17.85;11.70;;;;;;;14.61;71.33;101290.44;5027724;28;20026;-95
2022/06/22 01:30:54;;;;;;;18.20;11.80;;;;;;;14.62;70.59;101284.38;5023876;28;20021;-95
2022/06/22 01:33:35;;;;;;;16.88;12.13;;;;;;;14.60;70.27;101276.44;5021554;28;20025;-95
2022/06/22 01:36:08;;;;;;;17.65;11.40;;;;;;;14.58;70.74;101269.41;5022225;28;20083;-96
2022/06/22 01:38:38;;;;;;;17.38;11.43;;;;;;;14.54;71.25;101257.13;5033252;28;20045;-96
2022/06/22 01:41:09;;;;;;;18.58;11.43;;;;;;;14.52;70.08;101253.59;5022659;28;20034;-95
2022/06/22 01:44:00;;;;;;;16.20;11.43;;;;;;;14.50;69.20;101250.09;5033507;28;20033;-95
2022/06/22 01:46:41;;;;;;;21.45;11.98;;;;;;;14.47;69.66;101244.78;5023955;28;20391;-95
2022/06/22 01:49:18;;;;;;;19.35;11.85;;;;;;;14.43;70.54;101246.50;5033781;28;20040;-96
2022/06/22 01:51:48;;;;;;;19.38;12.13;;;;;;;14.42;71.00;101249.97;5033859;28;20068;-96
2022/06/22 01:54:25;;;;;;;18.33;12.10;;;;;;;14.41;71.70;101259.59;5021696;28;20022;-96
2022/06/22 01:56:55;;;;;;;20.20;12.27;;;;;;;14.39;71.97;101253.41;5023059;28;20033;-96
2022/06/22 01:59:42;;;;;;;20.30;12.32;;;;;;;14.40;71.65;101255.19;5046363;28;20057;-95
2022/06/22 02:02:31;;;;;;;19.88;12.85;;;;;;;14.38;72.45;101250.78;5043746;28;20045;-95
2022/06/22 02:05:05;;;;;;;25.80;13.57;;;;;;;14.37;72.56;101249.91;5018889;28;20030;-94
2022/06/22 02:07:47;;;;;;;19.58;13.05;;;;;;;14.37;72.43;101244.66;5031444;28;20049;-96
2022/06/22 02:10:35;;;;;;;19.85;13.00;;;;;;;14.37;72.50;101256.91;5032656;28;20036;-95
2022/06/22 02:13:16;;;;;;;22.35;13.10;;;;;;;14.33;72.60;101258.56;5033296;28;20602;-95
2022/06/22 02:15:51;;;;;;;20.10;12.60;;;;;;;14.31;72.94;101252.44;5020892;28;20026;-95
2022/06/22 02:18:23;;;;;;;20.38;13.45;;;;;;;14.29;72.84;101241.03;5032728;28;20033;-94
2022/06/22 02:20:48;;;;;;;22.83;13.57;;;;;;;14.30;73.38;101248.06;5032480;28;20061;-95
2022/06/22 02:23:23;;;;;;;22.65;13.27;;;;;;;14.26;73.69;101247.13;5027292;28;20069;-94
2022/06/22 02:26:00;;;;;;;22.95;13.43;;;;;;;14.28;73.21;101255.03;5027151;28;20021;-95
2022/06/22 02:28:26;;;;;;;21.92;13.30;;;;;;;14.25;73.49;101254.94;5021048;28;20553;-94
2022/06/22 02:30:52;;;;;;;22.00;13.55;;;;;;;14.24;73.56;101243.59;5031371;28;20029;-95
2022/06/22 02:33:18;;;;;;;21.85;13.10;;;;;;;14.21;73.33;101230.44;5021906;28;20049;-94
2022/06/22 02:35:44;;;;;;;23.77;13.60;;;;;;;14.24;73.44;101227.88;5046053;28;20025;-95
2022/06/22 02:38:14;;;;;;;25.77;14.25;;;;;;;14.22;73.69;101220.84;5032281;28;20034;-95
2022/06/22 02:46:16;;;;;;;23.70;13.93;;;;;;;14.20;74.09;101222.56;5020158;28;20071;-95
2022/06/22 02:48:45;;;;;;;24.02;15.23;;;;;;;14.17;74.01;101226.00;5033042;28;20036;-95
2022/06/22 02:51:21;;;;;;;24.85;13.35;;;;;;;14.19;73.71;101228.66;5027985;28;20165;-95
2022/06/22 02:53:48;;;;;;;25.58;14.55;;;;;;;14.15;73.93;101224.22;5025626;28;20021;-94
2022/06/22 02:56:17;;;;;;;24.80;14.63;;;;;;;14.16;73.57;101233.84;5028259;28;20025;-95
2022/06/22 02:58:45;;;;;;;23.13;14.60;;;;;;;14.13;73.31;101232.06;5032502;28;20028;-95
2022/06/22 03:01:17;;;;;;;22.83;14.00;;;;;;;14.09;72.79;101233.78;5018625;28;20033;-95
2022/06/22 03:03:49;;;;;;;20.05;13.88;;;;;;;14.08;72.93;101236.38;5031242;28;20026;-96
2022/06/22 03:06:16;;;;;;;26.83;14.98;;;;;;;14.06;72.81;101246.84;5026820;28;20065;-96
2022/06/22 03:08:42;;;;;;;22.48;13.93;;;;;;;14.05;73.06;101242.44;5031435;28;20396;-95
2022/06/22 03:11:10;;;;;;;25.30;14.43;;;;;;;14.02;73.50;101245.00;5031994;28;20025;-94
2022/06/22 03:13:44;;;;;;;25.15;15.25;;;;;;;14.01;73.36;101240.63;5031304;28;20044;-95
2022/06/22 03:16:28;;;;;;;23.02;15.00;;;;;;;13.99;73.30;101244.97;5016708;28;20037;-96
2022/06/22 03:18:56;;;;;;;25.30;14.93;;;;;;;13.97;73.26;101246.66;5031905;28;20396;-95
2022/06/22 03:21:21;;;;;;;26.17;15.02;;;;;;;13.94;73.25;101237.91;5022710;28;20022;-95
2022/06/22 03:23:49;;;;;;;24.23;14.07;;;;;;;13.92;74.04;101235.25;5026720;28;20101;-95
2022/06/22 03:26:22;;;;;;;28.08;14.95;;;;;;;13.88;73.74;101233.44;5032697;28;20075;-95
2022/06/22 03:28:55;;;;;;;22.15;14.20;;;;;;;13.88;73.26;101228.19;5019021;28;20072;-96
2022/06/22 03:31:31;;;;;;;24.00;14.05;;;;;;;13.83;72.90;101219.38;5031625;28;20025;-95
2022/06/22 03:34:19;;;;;;;21.92;13.80;;;;;;;13.83;72.48;101219.38;5030602;28;20060;-95
2022/06/22 03:36:50;;;;;;;24.15;14.68;;;;;;;13.80;73.25;101227.19;5022008;28;20026;-96
2022/06/22 03:39:19;;;;;;;23.85;14.38;;;;;;;13.76;73.39;101228.88;5026241;28;20084;-96
2022/06/22 03:42:00;;;;;;;23.55;14.07;;;;;;;13.74;73.57;101223.63;5027075;28;20037;-96
2022/06/22 03:44:54;;;;;;;22.58;14.35;;;;;;;13.70;73.16;101224.41;5038945;28;20029;-96
2022/06/22 03:47:30;;;;;;;24.33;14.50;;;;;;;13.68;73.38;101218.25;5031645;28;20022;-95
2022/06/22 03:50:18;;;;;;;24.98;14.77;;;;;;;13.65;73.72;101212.97;5044373;28;20032;-95
2022/06/22 03:52:54;;;;;;;24.27;14.98;;;;;;;13.67;74.02;101205.13;5020517;28;20103;-95
2022/06/22 03:55:24;;;;;;;23.63;14.55;;;;;;;13.63;74.17;101217.31;5027809;28;20026;-94
2022/06/22 03:57:53;;;;;;;22.15;14.38;;;;;;;13.61;74.32;101213.78;5023115;28;20116;-94
2022/06/22 04:00:19;;;;;;;29.95;15.00;;;;;;;13.61;74.16;101210.28;5030426;28;20029;-95
2022/06/22 04:02:47;;;;;;;32.33;15.77;;;;;;;13.62;74.17;101201.59;5020875;28;20398;-94
2022/06/22 04:05:20;;;;;;;27.65;15.57;;;;;;;13.59;74.84;101206.78;5027098;28;20033;-95
2022/06/22 04:07:46;;;;;;;28.63;15.98;;;;;;;13.63;75.38;101214.69;5020737;28;20030;-94
2022/06/22 04:10:42;;;;;;;28.73;15.43;;;;;;;13.63;74.74;101206.84;5024898;28;20109;-94
2022/06/22 04:13:23;;;;;;;28.83;16.42;;;;;;;13.64;74.94;101213.81;5024900;28;20061;-95
2022/06/22 04:15:57;;;;;;;30.17;16.60;;;;;;;13.64;75.31;101207.72;5030542;28;20033;-95
2022/06/22 04:18:39;;;;;;;28.77;16.33;;;;;;;13.62;75.85;101212.06;5030316;28;20029;-95
2022/06/22 04:21:08;;;;;;;33.60;16.33;;;;;;;13.61;76.16;101221.63;5030643;28;20032;-94
2022/06/22 04:23:40;;;;;;;28.30;16.35;;;;;;;13.63;76.44;101217.31;5017359;28;20021;-95
2022/06/22 04:26:29;;;;;;;29.88;16.77;;;;;;;13.65;75.72;101220.81;5031321;28;20024;-95
2022/06/22 04:28:58;;;;;;;;;;;;;;;13.71;73.96;101214.81;5024319;28;20034;-95
2022/06/22 04:31:34;;;;;;;27.38;15.77;;;;;;;13.65;75.77;101214.72;5025251;28;20275;-95
2022/06/22 04:34:06;;;;;;;34.85;17.38;;;;;;;13.65;76.39;101230.44;5020214;28;20541;-95
2022/06/22 04:36:43;;;;;;;28.95;17.23;;;;;;;13.66;76.16;101232.22;5026055;28;20033;-95
2022/06/22 04:39:27;;;;;;;30.15;17.45;;;;;;;13.67;76.42;101232.22;5030656;28;20083;-94
2022/06/22 04:41:53;;;;;;;29.02;16.52;;;;;;;13.67;76.69;101228.72;5024898;28;20113;-95
2022/06/22 04:44:24;;;;;;;33.55;18.08;;;;;;;13.62;77.74;101231.25;5025203;28;20099;-94
2022/06/22 04:46:52;;;;;;;33.25;17.73;;;;;;;13.66;78.00;101234.81;5029646;28;20037;-95
2022/06/22 04:49:32;;;;;;;35.58;19.23;;;;;;;13.67;77.53;101232.22;5030558;28;20491;-95
2022/06/22 04:52:17;;;;;;;32.90;17.65;;;;;;;13.69;77.51;101232.25;5021868;28;20042;-95
2022/06/22 04:54:45;;;;;;;37.17;18.65;;;;;;;13.70;78.27;101240.13;5024546;28;20037;-95
2022/06/22 04:57:26;;;;;;;38.35;19.48;;;;;;;13.69;78.52;101243.59;5026196;28;20022;-95
2022/06/22 04:59:52;;;;;;;39.42;19.58;;;;;;;13.72;79.46;101242.78;5031613;28;20112;-94
2022/06/22 05:02:21;;;;;;;35.33;19.08;;;;;;;13.74;80.33;101246.28;5033961;28;20036;-95
2022/06/22 05:04:53;;;;;;;35.45;20.10;;;;;;;13.73;79.53;101245.41;5024371;28;20108;-96
2022/06/22 05:07:47;;;;;;;38.88;19.10;;;;;;;13.78;79.27;101252.47;5032606;28;20499;-95
2022/06/22 05:10:24;;;;;;;36.70;19.70;;;;;;;13.81;80.20;101247.28;5025315;28;20476;-96
2022/06/22 05:12:58;;;;;;;41.95;20.65;;;;;;;13.81;80.03;101255.16;5028084;28;20476;-94
2022/06/22 05:15:33;;;;;;;39.03;19.60;;;;;;;13.84;79.52;101255.19;5027154;28;20738;-96
2022/06/22 05:18:01;;;;;;;39.72;20.73;;;;;;;13.85;80.30;101257.84;5020848;28;20028;-95
2022/06/22 05:20:39;;;;;;;39.50;22.13;;;;;;;13.88;79.89;101254.38;5032600;28;20025;-96
2022/06/22 05:23:07;;;;;;;39.00;20.75;;;;;;;13.89;81.10;101251.78;5039940;28;20287;-95
2022/06/22 05:25:33;;;;;;;41.25;22.38;;;;;;;13.91;80.99;101246.56;5031956;28;20036;-95
2022/06/22 05:28:03;;;;;;;46.90;23.40;;;;;;;13.96;81.41;101255.41;5027984;28;20018;-95
2022/06/22 05:30:37;;;;;;;42.35;23.05;;;;;;;13.98;81.97;101266.78;5027040;28;20483;-95
2022/06/22 05:33:08;;;;;;;46.55;22.75;;;;;;;14.01;81.59;101265.97;5034528;28;20028;-94
2022/06/22 05:35:39;;;;;;;45.33;23.40;;;;;;;14.04;81.31;101260.75;5031846;28;20033;-94
2022/06/22 05:38:07;;;;;;;43.92;22.58;;;;;;;14.07;82.16;101260.81;5033829;28;20064;-95
2022/06/22 05:40:34;;;;;;;46.15;24.33;;;;;;;14.10;82.38;101266.09;5031772;28;20030;-94
2022/06/22 05:43:00;;;;;;;48.22;24.15;;;;;;;14.15;82.18;101264.44;5031953;28;20022;-95
2022/06/22 05:45:36;;;;;;;48.08;23.90;;;;;;;14.18;80.94;101268.81;5030525;28;20040;-95
2022/06/22 05:48:01;;;;;;;46.20;23.15;;;;;;;14.23;82.26;101275.03;5031592;28;20064;-95
2022/06/22 05:50:41;;;;;;;49.28;24.20;;;;;;;14.27;82.67;101271.59;5029687;28;20063;-96
2022/06/22 05:53:30;;;;;;;46.28;23.35;;;;;;;14.31;81.97;101272.50;5032325;28;20102;-95
2022/06/22 05:56:05;;;;;;;52.78;24.45;;;;;;;14.36;83.07;101282.22;5033135;28;20067;-95
2022/06/22 05:59:03;;;;;;;51.05;26.35;;;;;;;14.42;82.57;101284.06;5043034;28;20078;-95
2022/06/22 06:01:50;;;;;;;52.80;26.70;;;;;;;14.51;82.48;101288.53;5020965;28;20044;-95
2022/06/22 06:04:38;;;;;;;55.75;27.48;;;;;;;14.58;81.92;101291.31;5027547;28;20022;-93
2022/06/22 06:07:14;;;;;;;49.13;26.58;;;;;;;14.65;82.57;101294.91;5027947;28;20556;-95
2022/06/22 06:09:40;;;;;;;53.28;27.30;;;;;;;14.75;82.61;101306.41;5028095;28;20033;-93
2022/06/22 06:12:13;;;;;;;48.05;25.40;;;;;;;14.78;81.69;101304.69;5030118;28;20041;-94
2022/06/22 06:14:41;;;;;;;61.03;26.40;;;;;;;14.83;81.54;101306.50;5022285;28;20061;-94
2022/06/22 06:17:15;;;;;;;56.97;26.02;;;;;;;14.89;82.04;101297.00;5032519;28;20037;-94
2022/06/22 06:19:44;;;;;;;56.80;27.92;;;;;;;14.97;82.35;101297.06;5032471;28;20025;-94
2022/06/22 06:22:11;;;;;;;52.67;27.05;;;;;;;15.02;81.02;101303.28;5030997;28;20018;-92
2022/06/22 06:27:38;;;;;;;56.97;27.15;;;;;;;15.17;81.29;101291.22;5026662;28;20056;-94
2022/06/22 06:30:15;;;;;;;53.33;27.45;;;;;;;15.22;80.20;101298.28;5029563;28;20068;-94
2022/06/22 06:32:43;;;;;;;56.58;28.02;;;;;;;15.33;81.51;101301.00;5030406;28;20029;-93
2022/06/22 06:35:29;;;;;;;58.60;29.50;;;;;;;15.41;80.31;101296.72;5025196;28;20030;-93
2022/06/22 06:38:21;;;;;;;66.68;30.23;;;;;;;15.52;80.05;101301.22;5030057;28;20042;-95
2022/06/22 06:41:05;;;;;;;63.35;31.08;;;;;;;15.60;79.91;101296.94;5029964;28;20026;-96
2022/06/22 06:43:36;;;;;;;64.53;31.20;;;;;;;15.70;81.12;101309.28;5032234;28;20033;-96
2022/06/22 06:46:05;;;;;;;57.70;28.00;;;;;;;15.77;80.26;101295.34;5030304;28;20508;-96
2022/06/22 06:48:32;;;;;;;;;;;;;;;15.87;78.65;101295.47;5027490;28;20051;-96
2022/06/22 06:51:03;;;;;;;60.92;27.80;;;;;;;15.92;79.62;101278.00;5040564;28;20003;-96
2022/06/22 06:53:44;;;;;;;56.13;26.85;;;;;;;16.01;79.64;101272.78;5034839;28;20033;-96
2022/06/22 06:56:34;;;;;;;55.15;26.90;;;;;;;16.09;78.71;101268.50;5030544;28;20048;-96
2022/06/22 06:59:17;;;;;;;;;;;;;;;;;;;;;
2022/06/22 07:01:45;;;;;;;55.17;27.55;;;;;;;16.25;79.10;101268.59;5034001;28;20025;-95
2022/06/22 07:04:23;;;;;;;49.72;24.85;;;;;;;16.33;78.54;101278.28;5030621;28;20072;-95
2022/06/22 07:06:55;;;;;;;55.55;25.45;;;;;;;16.42;77.88;101271.34;5031302;28;20562;-95
2022/06/22 07:09:27;;;;;;;46.85;24.50;;;;;;;16.44;77.74;101257.31;5030413;28;20685;-96
2022/06/22 07:11:59;;;;;;;56.78;24.58;;;;;;;16.55;77.84;101259.13;5030065;28;20052;-96
2022/06/22 07:14:38;;;;;;;46.08;24.17;;;;;;;16.59;77.62;101259.16;5031574;28;20105;-95
2022/06/22 07:17:12;;;;;;;48.95;24.55;;;;;;;16.66;77.80;101267.97;5029688;28;20091;-96
2022/06/22 07:19:48;;;;;;;44.88;23.30;;;;;;;16.72;77.73;101268.00;5030237;28;20022;-96
2022/06/22 07:22:13;;;;;;;46.42;23.50;;;;;;;16.81;78.29;101262.75;5019424;28;20021;-96
2022/06/22 07:24:48;;;;;;;46.13;23.10;;;;;;;16.86;77.44;101255.78;5026656;28;21215;-96
2022/06/22 07:27:26;;;;;;;43.00;24.10;;;;;;;16.93;76.07;101258.47;5029098;28;20300;-96
2022/06/22 07:30:04;;;;;;;47.95;23.65;;;;;;;17.01;77.74;101251.50;5035196;28;20067;-96
2022/06/22 07:32:39;;;;;;;43.80;23.20;;;;;;;17.08;76.90;101244.50;5037494;28;20063;-96
2022/06/22 07:35:40;;;;;;;49.08;22.83;;;;;;;17.17;75.74;101236.63;5018433;28;20490;-96
2022/06/22 07:38:26;;;;;;;43.95;21.52;;;;;;;17.25;75.96;101241.88;5017123;28;20037;-96
2022/06/22 07:43:37;;;;;;;43.50;20.75;;;;;;;17.33;76.21;101232.25;5031352;28;20116;-96
2022/06/22 07:46:04;;;;;;;37.92;20.83;;;;;;;17.40;75.82;101239.28;5033270;28;20112;-96
2022/06/22 07:48:33;;;;;;;37.17;19.27;;;;;;;17.42;72.74;101250.69;5032823;28;20029;-96
2022/06/22 07:51:05;;;;;;;37.60;18.50;;;;;;;17.47;73.71;101248.09;5029409;28;20049;-96
2022/06/22 07:53:38;;;;;;;41.47;21.67;;;;;;;17.55;74.74;101243.69;5030524;28;20026;-96
2022/06/22 07:56:22;;;;;;;42.33;21.35;;;;;;;17.56;74.22;101248.09;5034115;28;20572;-96
2022/06/22 07:59:00;;;;;;;43.53;22.35;;;;;;;17.65;74.84;101253.38;5046758;28;20064;-95
2022/06/22 08:01:35;;;;;;;40.95;22.95;;;;;;;17.67;74.74;101249.00;5014872;28;20021;-96
2022/06/22 08:04:05;;;;;;;47.90;23.67;;;;;;;17.73;74.58;101249.00;5028441;28;20057;-95
2022/06/22 08:06:41;;;;;;;40.40;22.23;;;;;;;17.79;74.42;101250.75;5029234;28;20105;-96
2022/06/22 08:09:15;;;;;;;39.58;21.80;;;;;;;17.80;73.98;101251.63;5029196;28;20025;-95
2022/06/22 08:11:45;;;;;;;44.58;21.45;;;;;;;17.88;74.86;101255.16;5029105;28;20108;-95
2022/06/22 08:14:34;;;;;;;119.22;55.50;;;;;;;17.90;73.16;101248.13;5039282;28;20059;-95
2022/06/22 08:17:02;;;;;;;42.67;23.23;;;;;;;17.99;74.02;101255.19;5029113;28;20380;-95
2022/06/22 08:19:29;;;;;;;37.72;20.90;;;;;;;18.02;74.39;101260.47;5029191;28;20341;-95
2022/06/22 08:22:01;;;;;;;40.15;21.80;;;;;;;18.14;74.34;101262.22;5028931;28;20037;-95
2022/06/22 08:24:32;;;;;;;42.63;22.30;;;;;;;18.17;72.14;101263.06;5027744;28;20025;-95
2022/06/22 08:27:00;;;;;;;40.42;20.48;;;;;;;18.25;74.00;101266.59;5028836;28;20057;-94
2022/06/22 08:29:27;;;;;;;41.72;21.63;;;;;;;18.32;72.68;101264.81;5029967;28;20035;-94
2022/06/22 08:32:07;;;;;;;44.08;24.90;;;;;;;18.42;72.65;101270.94;5028880;28;20554;-95
2022/06/22 08:34:38;;;;;;;40.05;21.10;;;;;;;18.50;71.72;101260.38;5024328;28;20033;-95
2022/06/22 08:37:07;;;;;;;38.80;20.70;;;;;;;18.65;70.38;101267.38;5027699;28;20037;-94
2022/06/22 08:39:42;;;;;;;31.58;18.55;;;;;;;18.72;69.76;101259.41;5029008;28;20037;-94
2022/06/22 08:42:23;;;;;;;30.83;16.77;;;;;;;18.86;70.30;101266.44;5029974;28;20033;-94
2022/06/22 08:45:17;;;;;;;25.38;13.38;;;;;;;18.98;69.43;101262.91;5028294;28;20760;-94
2022/06/22 08:48:06;;;;;;;27.25;13.82;;;;;;;19.06;68.02;101261.97;5016577;28;20025;-94
2022/06/22 08:50:45;;;;;;;;;;;;;;;19.19;69.48;101270.72;5028450;28;20091;-95
2022/06/22 08:53:35;;;;;;;24.08;13.05;;;;;;;19.31;67.31;101268.91;5028856;28;19976;-95
2022/06/22 08:56:32;;;;;;;20.90;13.05;;;;;;;19.42;66.96;101267.03;5016902;28;20180;-94
2022/06/22 08:59:19;;;;;;;22.92;13.02;;;;;;;19.52;61.98;101259.94;5026713;28;20037;-94
2022/06/22 09:02:12;;;;;;;25.73;13.77;;;;;;;19.60;63.79;101266.06;5029022;28;20091;-94
2022/06/22 09:04:58;;;;;;;20.33;12.65;;;;;;;19.70;65.35;101248.38;5026447;28;20026;-95
2022/06/22 09:07:55;;;;;;;20.67;12.07;;;;;;;19.83;65.14;101255.34;5027255;28;20029;-95
2022/06/22 09:10:31;;;;;;;23.83;12.65;;;;;;;20.02;64.34;101260.47;5025680;28;20083;-95
2022/06/22 09:13:15;;;;;;;25.73;13.18;;;;;;;20.10;61.07;101259.50;5027309;28;20041;-94
2022/06/22 09:15:53;;;;;;;22.52;12.55;;;;;;;20.20;61.63;101262.06;5017994;28;20084;-95
2022/06/22 09:18:24;;;;;;;21.42;12.45;;;;;;;20.22;62.50;101269.09;5023192;28;20033;-95
2022/06/22 09:21:09;;;;;;;16.40;11.60;;;;;;;20.30;63.81;101264.59;5025574;28;20040;-94
2022/06/22 09:24:05;;;;;;;22.48;12.75;;;;;;;20.40;62.18;101275.09;5026418;28;20026;-95
2022/06/22 09:27:10;;;;;;;20.63;12.68;;;;;;;20.49;61.11;101267.03;5028313;28;20398;-95
2022/06/22 09:29:57;;;;;;;22.38;12.57;;;;;;;20.57;60.62;101264.34;5025848;28;20147;-95
2022/06/22 09:32:40;;;;;;;19.02;11.45;;;;;;;20.67;61.22;101261.59;5026378;28;20029;-94
2022/06/22 09:35:30;;;;;;;19.17;11.60;;;;;;;20.80;60.36;101274.69;5025850;28;20119;-94
2022/06/22 09:37:58;;;;;;;18.33;10.80;;;;;;;20.90;56.63;101270.13;5026142;28;20025;-95
2022/06/22 09:40:39;;;;;;;15.63;9.93;;;;;;;20.98;55.90;101270.94;5032294;28;20041;-95
2022/06/22 09:43:45;;;;;;;15.35;8.52;;;;;;;21.11;57.71;101276.94;5049074;28;20025;-95
2022/06/22 09:46:33;;;;;;;15.40;8.82;;;;;;;21.16;55.67;101270.69;5028891;28;20033;-95
2022/06/22 09:49:30;;;;;;;14.77;8.07;;;;;;;21.26;54.50;101275.84;5024470;28;20438;-95
2022/06/22 09:52:27;;;;;;;16.63;8.15;;;;;;;21.37;57.15;101280.09;5031336;28;20061;-95
2022/06/22 09:58:40;;;;;;;15.00;8.07;;;;;;;21.62;56.00;101263.84;4979586;28;20558;-95
2022/06/22 10:01:36;;;;;;;13.52;7.57;;;;;;;21.73;55.47;101269.00;4974059;28;20030;-95
2022/06/22 10:04:35;;;;;;;14.13;7.82;;;;;;;21.83;55.14;101262.66;5024015;28;20049;-96
2022/06/22 10:07:19;;;;;;;;;;;;;;;21.95;57.67;101260.69;5020527;28;20025;-96
2022/06/22 10:10:09;;;;;;;12.40;8.32;;;;;;;22.01;53.49;101256.13;5032353;28;19909;-96
2022/06/22 10:13:05;;;;;;;11.57;7.53;;;;;;;22.11;55.87;101256.00;5030093;28;20021;-95
2022/06/22 10:16:08;;;;;;;16.13;7.40;;;;;;;22.28;55.27;101253.91;5031093;28;20495;-95
2022/06/22 10:18:52;;;;;;;12.23;7.18;;;;;;;22.37;53.95;101251.09;5019860;28;20471;-95
2022/06/22 10:21:39;;;;;;;14.98;10.18;;;;;;;22.50;51.70;101242.91;5032538;28;20075;-94
2022/06/22 10:24:22;;;;;;;11.93;7.85;;;;;;;22.54;52.66;101245.47;5030391;28;20356;-95
2022/06/22 10:27:07;;;;;;;15.52;8.65;;;;;;;22.67;52.87;101234.59;5030292;28;20090;-96
2022/06/22 10:29:35;;;;;;;12.43;8.00;;;;;;;22.77;51.97;101233.50;5034468;28;20079;-96
2022/06/22 10:32:10;;;;;;;14.83;8.50;;;;;;;22.91;53.24;101241.16;5029696;28;20025;-96
2022/06/22 10:34:45;;;;;;;13.75;8.10;;;;;;;22.97;51.16;101241.06;5031218;28;20029;-96
2022/06/22 10:37:35;;;;;;;13.05;7.50;;;;;;;23.05;51.47;101233.75;5033964;28;20037;-95
2022/06/22 10:46:26;;;;;;;12.30;8.20;;;;;;;23.20;46.54;101231.72;5037631;28;19958;-94
2022/06/22 10:49:04;;;;;;;15.35;7.30;;;;;;;23.31;51.26;101231.47;5038735;28;20278;-94
2022/06/22 10:51:58;;;;;;;12.43;7.50;;;;;;;23.45;52.19;101224.03;5030468;28;20056;-94
2022/06/22 10:54:53;;;;;;;16.80;8.18;;;;;;;23.56;52.46;101234.41;5026569;28;20037;-94
2022/06/22 10:57:35;;;;;;;11.40;6.95;;;;;;;23.63;49.83;101228.03;5050583;28;20112;-95
2022/06/22 11:00:10;;;;;;;11.13;7.15;;;;;;;23.69;45.62;101227.88;5029742;28;20026;-95
2022/06/22 11:02:54;;;;;;;12.35;6.65;;;;;;;23.76;45.40;101225.94;5031185;28;20096;-95
2022/06/22 11:05:37;;;;;;;12.82;7.35;;;;;;;23.83;47.59;101230.19;5031401;28;20029;-95
2022/06/22 11:08:18;;;;;;;13.82;8.20;;;;;;;23.89;48.04;101227.41;5038446;28;20017;-95
2022/06/22 11:11:10;;;;;;;14.38;7.25;;;;;;;24.03;50.21;101226.16;5031221;28;20108;-95
2022/06/22 11:13:45;;;;;;;13.05;7.55;;;;;;;24.09;46.25;101231.34;5031084;28;20025;-94
2022/06/22 11:16:48;;;;;;;13.90;7.22;;;;;;;24.18;47.12;101228.41;5031149;28;20376;-95
2022/06/22 11:19:39;;;;;;;16.35;7.95;;;;;;;24.30;47.82;101219.22;5028599;28;20643;-94
2022/06/22 11:22:39;;;;;;;12.57;7.60;;;;;;;24.42;47.21;101212.66;5031001;28;20091;-94
2022/06/22 11:25:16;;;;;;;11.23;7.13;;;;;;;24.51;48.56;101222.22;5029335;28;20033;-94
2022/06/22 11:31:33;;;;;;;10.88;6.28;;;;;;;24.68;48.01;101213.75;5030322;28;20399;-95
2022/06/22 11:34:18;;;;;;;11.63;6.85;;;;;;;24.73;44.48;101212.69;5029078;28;20033;-94
2022/06/22 11:36:54;;;;;;;10.60;5.93;;;;;;;24.83;46.21;101219.50;5030179;28;20458;-95
2022/06/22 11:39:35;;;;;;;13.88;6.43;;;;;;;24.95;46.67;101223.56;5056444;28;20076;-95
2022/06/22 11:42:18;;;;;;;9.82;5.95;;;;;;;25.00;45.49;101226.13;5029071;28;20222;-95
2022/06/22 11:48:40;;;;;;;9.95;6.65;;;;;;;25.19;47.51;101237.09;5023947;28;20617;-94
2022/06/22 11:51:22;;;;;;;11.63;7.82;;;;;;;25.16;43.86;101227.38;5030081;28;20056;-94
2022/06/22 11:54:04;;;;;;;12.07;7.30;;;;;;;25.21;42.79;101229.03;5028810;28;20029;-94
2022/06/22 11:57:00;;;;;;;10.05;6.53;;;;;;;25.25;45.01;101236.03;5029138;28;20060;-94
2022/06/22 11:59:46;;;;;;;11.05;7.18;;;;;;;25.25;43.77;101231.56;5028105;28;20589;-94
2022/06/22 12:02:36;;;;;;;12.27;6.80;;;;;;;25.27;43.58;101223.50;5048328;22;20009;-59
2022/06/22 12:05:42;;;;;;;12.65;6.53;;;;;;;25.33;44.24;101221.56;5011829;28;20101;-59
2022/06/22 12:08:39;;;;;;;9.50;6.38;;;;;;;25.42;45.99;101228.38;4990875;28;20307;-59
2022/06/22 12:11:15;;;;;;;9.82;5.80;;;;;;;25.49;42.22;101229.03;5009943;28;20030;-59
2022/06/22 12:16:58;;;;;;;8.38;5.30;;;;;;;25.58;43.96;101222.53;5009039;28;20096;-59
2022/06/22 12:19:39;;;;;;;9.43;5.50;;;;;;;25.57;38.53;101212.78;5009343;28;20481;-59
2022/06/22 12:22:14;;;;;;;7.72;4.80;;;;;;;25.64;41.26;101207.19;5010109;28;20029;-59
2022/06/22 12:24:57;;;;;;;9.23;5.47;;;;;;;25.70;38.67;101198.09;5010202;28;20026;-58
2022/06/22 12:27:34;;;;;;;10.70;5.28;;;;;;;25.74;36.78;101205.09;5008349;28;20041;-59
2022/06/22 12:30:02;;;;;;;7.95;4.97;;;;;;;25.81;39.66;101203.06;5009972;28;20022;-59
2022/06/22 12:32:45;;;;;;;9.60;5.40;;;;;;;25.84;40.29;101198.50;5010432;28;20045;-59
2022/06/22 12:35:31;;;;;;;8.05;5.15;;;;;;;25.85;39.24;101181.56;5010433;28;20303;-59